createdAt,value
2018-03-26T00:02:26.891Z,11.74
2018-03-26T00:04:58.759Z,11.77
2018-03-26T00:07:33.816Z,11.69
2018-03-26T00:10:08.509Z,11.59
2018-03-26T00:12:40.146Z,11.58
2018-03-26T00:15:16.677Z,11.59
2018-03-26T00:17:48.901Z,11.61
2018-03-26T00:20:21.338Z,11.61
2018-03-26T00:22:53.063Z,11.58
2018-03-26T00:25:24.054Z,11.70
2018-03-26T00:27:57.243Z,11.70
2018-03-26T00:30:30.968Z,11.70
2018-03-26T00:33:03.398Z,11.65
2018-03-26T00:35:35.436Z,11.69
2018-03-26T00:38:06.840Z,11.60
2018-03-26T00:40:38.856Z,11.44
2018-03-26T00:43:18.160Z,11.37
2018-03-26T00:46:13.522Z,11.40
2018-03-26T00:53:34.742Z,11.42
2018-03-26T00:56:06.470Z,11.30
2018-03-26T00:58:38.249Z,11.26
2018-03-26T01:01:10.892Z,11.35
2018-03-26T01:03:43.158Z,11.42
2018-03-26T01:06:17.090Z,11.34
2018-03-26T01:08:48.614Z,11.21
2018-03-26T01:11:21.170Z,11.22
2018-03-26T01:13:52.839Z,11.30
2018-03-26T01:16:25.320Z,11.30
2018-03-26T01:18:57.198Z,11.12
2018-03-26T01:21:28.947Z,11.16
2018-03-26T01:24:01.984Z,11.23
2018-03-26T01:26:33.666Z,11.23
2018-03-26T01:29:05.968Z,11.09
2018-03-26T01:31:38.115Z,10.93
2018-03-26T01:34:10.957Z,10.82
2018-03-26T01:36:43.253Z,10.67
2018-03-26T01:39:14.912Z,10.77
2018-03-26T01:41:46.754Z,10.67
2018-03-26T01:44:18.882Z,10.71
2018-03-26T01:46:50.798Z,10.75
2018-03-26T01:49:23.577Z,10.64
2018-03-26T01:51:56.150Z,10.68
2018-03-26T01:54:34.376Z,10.54
2018-03-26T01:57:08.225Z,10.47
2018-03-26T01:59:40.367Z,10.41
2018-03-26T02:02:13.991Z,10.35
2018-03-26T02:04:45.578Z,10.35
2018-03-26T02:07:17.875Z,10.33
2018-03-26T02:09:49.801Z,10.20
2018-03-26T02:12:21.157Z,10.18
2018-03-26T02:14:52.709Z,10.29
2018-03-26T02:17:24.655Z,10.14
2018-03-26T02:19:56.747Z,10.17
2018-03-26T02:22:28.856Z,10.31
2018-03-26T02:24:59.686Z,10.22
2018-03-26T02:27:31.618Z,10.20
2018-03-26T02:30:04.776Z,10.13
2018-03-26T02:32:36.273Z,10.12
2018-03-26T02:35:07.946Z,10.12
2018-03-26T02:37:39.198Z,10.13
2018-03-26T02:40:10.992Z,10.09
2018-03-26T02:42:43.364Z,10.14
2018-03-26T02:45:22.621Z,10.22
2018-03-26T02:47:53.767Z,10.31
2018-03-26T02:50:24.892Z,10.04
2018-03-26T02:52:56.084Z,10.05
2018-03-26T02:55:27.631Z,10.12
2018-03-26T02:57:58.710Z,10.02
2018-03-26T03:00:32.314Z,10.07
2018-03-26T03:03:03.323Z,10.08
2018-03-26T03:05:34.597Z,10.13
2018-03-26T03:08:05.608Z,10.21
2018-03-26T03:10:37.097Z,10.27
2018-03-26T03:13:08.218Z,10.25
2018-03-26T03:15:39.733Z,10.21
2018-03-26T03:18:12.366Z,10.10
2018-03-26T03:20:43.750Z,9.98
2018-03-26T03:23:15.660Z,10.15
2018-03-26T03:25:50.031Z,10.00
2018-03-26T03:28:21.407Z,10.19
2018-03-26T03:30:52.795Z,10.18
2018-03-26T03:33:23.941Z,10.26
2018-03-26T03:35:55.621Z,10.27
2018-03-26T03:38:27.132Z,10.11
2018-03-26T03:40:59.706Z,9.92
2018-03-26T03:43:30.797Z,9.84
2018-03-26T03:46:04.007Z,9.82
2018-03-26T03:48:36.538Z,9.76
2018-03-26T03:51:08.030Z,9.91
2018-03-26T03:53:39.200Z,9.84
2018-03-26T03:56:11.841Z,9.91
2018-03-26T03:58:49.961Z,9.85
2018-03-26T04:01:21.373Z,9.83
2018-03-26T04:03:52.132Z,9.71
2018-03-26T04:06:23.913Z,9.63
2018-03-26T04:08:55.426Z,9.57
2018-03-26T04:11:26.797Z,9.61
2018-03-26T04:13:58.171Z,9.54
2018-03-26T04:16:30.142Z,9.54
2018-03-26T04:19:02.162Z,9.62
2018-03-26T04:21:34.843Z,9.70
2018-03-26T04:24:06.112Z,9.74
2018-03-26T04:26:37.322Z,9.55
2018-03-26T04:32:05.970Z,9.45
2018-03-26T04:34:53.440Z,9.36
2018-03-26T04:37:24.490Z,9.35
2018-03-26T04:39:55.990Z,9.33
2018-03-26T04:42:28.985Z,9.28
2018-03-26T04:45:00.214Z,9.24
2018-03-26T04:47:33.595Z,9.11
2018-03-26T04:50:05.661Z,8.98
2018-03-26T04:52:37.598Z,9.10
2018-03-26T04:55:09.302Z,9.22
2018-03-26T04:57:40.819Z,9.13
2018-03-26T05:00:14.641Z,8.99
2018-03-26T05:02:46.425Z,9.07
2018-03-26T05:05:19.378Z,9.23
2018-03-26T05:07:50.611Z,9.36
2018-03-26T05:13:05.966Z,9.43
2018-03-26T05:15:48.583Z,9.40
2018-03-26T05:18:19.828Z,9.47
2018-03-26T05:20:52.041Z,9.53
2018-03-26T05:23:23.732Z,9.45
2018-03-26T05:25:55.516Z,9.51
2018-03-26T05:28:28.418Z,9.70
2018-03-26T05:31:01.670Z,9.68
2018-03-26T05:33:33.535Z,9.64
2018-03-26T05:36:05.968Z,9.58
2018-03-26T05:38:39.448Z,9.53
2018-03-26T05:41:12.102Z,9.37
2018-03-26T05:43:44.363Z,9.35
2018-03-26T05:46:17.835Z,9.33
2018-03-26T05:48:52.304Z,9.36
2018-03-26T05:51:29.287Z,9.18
2018-03-26T05:54:01.883Z,9.11
2018-03-26T05:56:35.512Z,9.11
2018-03-26T05:59:06.672Z,8.98
2018-03-26T06:01:38.556Z,8.83
2018-03-26T06:04:12.046Z,9.09
2018-03-26T06:06:50.328Z,9.29
2018-03-26T06:09:23.506Z,9.34
2018-03-26T06:11:54.940Z,9.34
2018-03-26T06:14:26.524Z,9.42
2018-03-26T06:17:13.294Z,9.27
2018-03-26T06:19:46.058Z,9.38
2018-03-26T06:22:18.122Z,9.27
2018-03-26T06:24:49.774Z,9.23
2018-03-26T06:27:22.130Z,9.06
2018-03-26T06:29:55.055Z,9.02
2018-03-26T06:38:32.983Z,8.63
2018-03-26T06:41:04.493Z,8.52
2018-03-26T06:43:43.613Z,8.60
2018-03-26T06:46:20.448Z,8.71
2018-03-26T06:48:59.539Z,8.97
2018-03-26T06:51:31.423Z,9.14
2018-03-26T06:54:09.850Z,9.10
2018-03-26T07:01:59.496Z,8.89
2018-03-26T07:04:32.038Z,8.98
2018-03-26T07:07:04.114Z,9.02
2018-03-26T07:09:45.012Z,9.05
2018-03-26T07:12:20.248Z,9.09
2018-03-26T07:14:51.547Z,9.39
2018-03-26T07:17:25.264Z,9.51
2018-03-26T07:19:57.792Z,9.82
2018-03-26T07:22:30.283Z,10.08
2018-03-26T07:25:02.515Z,10.26
2018-03-26T07:27:41.014Z,10.59
2018-03-26T07:38:16.019Z,10.17
2018-03-26T07:40:47.444Z,10.08
2018-03-26T07:43:21.309Z,10.07
2018-03-26T07:45:57.545Z,10.17
2018-03-26T07:48:37.716Z,10.39
2018-03-26T07:51:09.408Z,10.80
2018-03-26T07:53:41.926Z,11.11
2018-03-26T07:56:21.695Z,10.99
2018-03-26T07:58:55.114Z,11.09
2018-03-26T08:04:29.963Z,11.18
2018-03-26T08:07:01.727Z,11.81
2018-03-26T08:24:27.420Z,12.87
2018-03-26T08:27:00.798Z,13.11
2018-03-26T08:29:34.966Z,13.42
2018-03-26T08:32:06.752Z,13.64
2018-03-26T08:37:19.331Z,13.65
2018-03-26T08:39:50.432Z,13.36
2018-03-26T08:42:22.342Z,13.72
2018-03-26T08:44:54.627Z,13.78
2018-03-26T08:47:26.372Z,13.54
2018-03-26T08:49:58.264Z,13.88
2018-03-26T08:52:30.285Z,13.97
2018-03-26T08:55:02.749Z,14.09
2018-03-26T08:57:33.969Z,14.12
2018-03-26T09:00:07.974Z,14.25
2018-03-26T09:02:40.231Z,14.50
2018-03-26T09:05:13.890Z,14.64
2018-03-26T09:07:45.642Z,14.71
2018-03-26T09:10:16.975Z,14.92
2018-03-26T09:12:48.221Z,15.17
2018-03-26T09:15:22.639Z,15.34
2018-03-26T09:17:55.799Z,15.26
2018-03-26T09:20:26.756Z,15.08
2018-03-26T09:22:57.831Z,15.30
2018-03-26T09:25:29.373Z,15.90
2018-03-26T09:28:00.888Z,16.28
2018-03-26T09:30:33.413Z,16.16
2018-03-26T09:33:04.530Z,16.54
2018-03-26T09:35:36.484Z,16.54
2018-03-26T09:38:07.900Z,16.58
2018-03-26T09:40:39.722Z,16.66
2018-03-26T09:43:11.104Z,16.21
2018-03-26T09:45:42.537Z,16.44
2018-03-26T09:48:13.465Z,16.47
2018-03-26T09:50:45.738Z,16.53
2018-03-26T09:53:17.178Z,16.73
2018-03-26T09:55:50.132Z,16.96
2018-03-26T09:58:27.432Z,17.45
2018-03-26T10:01:05.142Z,17.40
2018-03-26T10:03:41.192Z,17.84
2018-03-26T10:06:13.997Z,18.17
2018-03-26T10:08:48.218Z,18.36
2018-03-26T10:11:20.210Z,18.70
2018-03-26T10:13:53.740Z,17.87
2018-03-26T10:16:24.959Z,16.30
2018-03-26T10:19:07.441Z,16.29
2018-03-26T10:21:40.016Z,16.65
2018-03-26T10:24:11.840Z,16.79
2018-03-26T10:26:59.843Z,16.46
2018-03-26T10:29:38.727Z,16.66
2018-03-26T10:32:14.900Z,16.19
2018-03-26T10:37:40.157Z,16.32
2018-03-26T10:40:13.345Z,16.99
2018-03-26T10:42:56.599Z,17.02
2018-03-26T10:45:41.435Z,16.81
2018-03-26T10:48:13.184Z,17.42
2018-03-26T10:50:58.636Z,17.37
2018-03-26T10:53:32.459Z,17.24
2018-03-26T10:56:06.601Z,17.01
2018-03-26T10:58:41.970Z,16.44
2018-03-26T11:01:15.257Z,16.34
2018-03-26T11:03:48.176Z,16.44
2018-03-26T11:06:19.330Z,16.52
2018-03-26T11:08:52.077Z,16.36
2018-03-26T11:11:24.059Z,16.38
2018-03-26T11:13:57.413Z,16.51
2018-03-26T11:16:29.842Z,16.06
2018-03-26T11:19:05.751Z,15.39
2018-03-26T11:21:53.535Z,15.19
2018-03-26T11:24:28.147Z,15.59
2018-03-26T11:27:00.654Z,16.03
2018-03-26T11:29:32.320Z,17.18
2018-03-26T11:32:05.937Z,17.10
2018-03-26T11:34:38.301Z,16.70
2018-03-26T11:37:09.612Z,16.78
2018-03-26T11:39:54.440Z,17.12
2018-03-26T11:42:27.728Z,17.53
2018-03-26T11:45:05.791Z,17.55
2018-03-26T11:47:37.903Z,18.04
2018-03-26T11:50:15.459Z,18.00
2018-03-26T11:52:47.103Z,17.87
2018-03-26T11:55:18.223Z,18.11
2018-03-26T11:57:49.223Z,17.93
2018-03-26T12:03:17.181Z,17.91
2018-03-26T12:05:52.941Z,17.53
2018-03-26T12:08:24.403Z,17.37
2018-03-26T12:10:56.277Z,16.56
2018-03-26T12:13:27.744Z,16.75
2018-03-26T12:16:00.572Z,17.25
2018-03-26T12:18:49.559Z,17.51
2018-03-26T12:21:21.047Z,18.54
2018-03-26T12:24:03.141Z,18.57
2018-03-26T12:26:36.078Z,18.22
2018-03-26T12:29:34.225Z,17.92
2018-03-26T12:32:07.315Z,17.64
2018-03-26T12:36:49.496Z,17.43
2018-03-26T12:39:22.615Z,17.37
2018-03-26T12:41:55.100Z,17.14
2018-03-26T12:44:37.980Z,17.29
2018-03-26T12:47:18.970Z,17.46
2018-03-26T12:49:51.054Z,16.88
2018-03-26T12:52:32.610Z,16.90
2018-03-26T12:55:05.268Z,16.72
2018-03-26T12:58:46.174Z,16.60
2018-03-26T13:01:28.269Z,17.45
2018-03-26T13:03:59.385Z,17.25
2018-03-26T13:06:31.754Z,17.60
2018-03-26T13:09:03.527Z,17.96
2018-03-26T13:11:35.677Z,17.62
2018-03-26T13:14:09.785Z,17.40
2018-03-26T13:16:43.381Z,17.54
2018-03-26T13:19:14.490Z,17.87
2018-03-26T13:21:46.031Z,17.68
2018-03-26T13:24:17.102Z,17.94
2018-03-26T13:26:48.417Z,17.60
2018-03-26T13:29:20.164Z,17.28
2018-03-26T13:31:51.892Z,17.14
2018-03-26T13:34:27.973Z,17.46
2018-03-26T13:37:01.950Z,18.00
2018-03-26T13:39:35.999Z,18.03
2018-03-26T13:42:08.120Z,17.49
2018-03-26T13:44:40.639Z,17.26
2018-03-26T13:47:21.134Z,16.99
2018-03-26T13:49:55.596Z,17.34
2018-03-26T13:52:28.710Z,17.33
2018-03-26T13:55:01.084Z,17.32
2018-03-26T13:57:33.964Z,17.27
2018-03-26T14:00:43.903Z,17.44
2018-03-26T14:03:16.560Z,17.13
2018-03-26T14:05:48.199Z,17.21
2018-03-26T14:08:32.323Z,17.09
2018-03-26T14:11:35.275Z,17.26
2018-03-26T14:14:17.455Z,17.53
2018-03-26T14:17:00.075Z,17.28
2018-03-26T14:19:44.596Z,17.49
2018-03-26T14:22:25.456Z,17.90
2018-03-26T14:24:57.250Z,18.01
2018-03-26T14:27:28.527Z,17.52
2018-03-26T14:30:01.523Z,17.52
2018-03-26T14:32:50.111Z,17.21
2018-03-26T14:35:55.795Z,16.78
2018-03-26T14:38:26.692Z,16.29
2018-03-26T14:40:58.181Z,15.88
2018-03-26T14:43:30.374Z,15.96
2018-03-26T14:46:04.138Z,16.07
2018-03-26T14:48:36.674Z,15.96
2018-03-26T14:51:08.546Z,16.39
2018-03-26T14:53:39.810Z,16.79
2018-03-26T14:56:11.968Z,16.82
2018-03-26T14:58:49.433Z,17.00
2018-03-26T15:01:27.124Z,16.75
2018-03-26T15:04:09.056Z,16.77
2018-03-26T15:06:41.212Z,17.05
2018-03-26T15:09:13.733Z,17.02
2018-03-26T15:11:46.173Z,16.41
2018-03-26T15:14:29.946Z,16.13
2018-03-26T15:17:04.876Z,15.83
2018-03-26T15:19:35.837Z,15.86
2018-03-26T15:22:08.499Z,15.87
2018-03-26T15:24:40.430Z,15.82
2018-03-26T15:27:12.699Z,15.71
2018-03-26T15:29:45.373Z,15.53
2018-03-26T15:32:19.682Z,15.56
2018-03-26T15:34:54.095Z,15.41
2018-03-26T15:37:29.500Z,15.43
2018-03-26T15:40:02.636Z,15.29
2018-03-26T15:42:37.648Z,15.25
2018-03-26T15:48:00.879Z,15.11
2018-03-26T15:50:32.023Z,15.10
2018-03-26T15:53:04.423Z,15.14
2018-03-26T15:55:38.452Z,15.07
2018-03-26T15:58:12.819Z,14.78
2018-03-26T16:03:49.327Z,14.79
2018-03-26T16:06:20.519Z,14.76
2018-03-26T16:08:56.054Z,14.70
2018-03-26T16:11:27.167Z,14.74
2018-03-26T16:13:58.543Z,14.74
2018-03-26T16:16:30.090Z,14.57
2018-03-26T16:19:03.744Z,14.28
2018-03-26T16:21:36.005Z,14.44
2018-03-26T16:24:12.984Z,14.23
2018-03-26T16:26:52.622Z,14.05
2018-03-26T16:29:30.428Z,14.17
2018-03-26T16:32:04.327Z,14.20
2018-03-26T16:34:40.905Z,14.33
2018-03-26T16:37:13.795Z,14.49
2018-03-26T16:39:45.918Z,14.50
2018-03-26T16:42:25.487Z,14.45
2018-03-26T16:45:07.142Z,14.25
2018-03-26T16:47:42.091Z,13.96
2018-03-26T16:50:20.995Z,14.16
2018-03-26T16:52:57.627Z,14.16
2018-03-26T16:55:44.210Z,14.24
2018-03-26T16:58:29.796Z,14.49
2018-03-26T17:01:05.793Z,14.25
2018-03-26T17:03:46.052Z,14.21
2018-03-26T17:06:19.371Z,14.33
2018-03-26T17:08:50.581Z,14.23
2018-03-26T17:11:23.476Z,14.14
2018-03-26T17:13:54.683Z,14.20
2018-03-26T17:16:26.999Z,14.11
2018-03-26T17:18:58.416Z,14.15
2018-03-26T17:21:29.403Z,14.02
2018-03-26T17:24:00.489Z,13.96
2018-03-26T17:26:31.946Z,13.81
2018-03-26T17:29:03.435Z,13.74
2018-03-26T17:31:35.697Z,13.87
2018-03-26T17:34:17.685Z,13.72
2018-03-26T17:36:48.731Z,13.66
2018-03-26T17:39:25.036Z,13.73
2018-03-26T17:41:57.038Z,13.43
2018-03-26T17:44:28.804Z,13.76
2018-03-26T17:47:00.245Z,13.80
2018-03-26T17:49:31.285Z,13.83
2018-03-26T17:52:04.440Z,13.64
2018-03-26T17:57:40.923Z,13.76
2018-03-26T18:00:26.472Z,13.85
2018-03-26T18:02:57.804Z,13.99
2018-03-26T18:05:29.643Z,13.91
2018-03-26T18:08:01.433Z,13.96
2018-03-26T18:10:33.472Z,14.21
2018-03-26T18:13:04.996Z,14.28
2018-03-26T18:15:36.727Z,14.29
2018-03-26T18:18:08.152Z,14.25
2018-03-26T18:20:40.319Z,14.00
2018-03-26T18:23:11.802Z,13.83
2018-03-26T18:25:43.558Z,13.69
2018-03-26T18:28:18.191Z,13.82
2018-03-26T18:30:51.031Z,14.00
2018-03-26T18:33:47.345Z,14.28
2018-03-26T18:36:21.020Z,14.46
2018-03-26T18:38:57.457Z,14.53
2018-03-26T18:41:35.348Z,14.54
2018-03-26T18:44:08.041Z,14.28
2018-03-26T18:46:40.444Z,14.16
2018-03-26T18:49:13.944Z,13.95
2018-03-26T18:51:45.508Z,13.75
2018-03-26T18:54:18.065Z,13.59
2018-03-26T18:56:49.601Z,13.47
2018-03-26T18:59:20.795Z,13.09
2018-03-26T19:01:52.787Z,12.96
2018-03-26T19:04:26.289Z,12.75
2018-03-26T19:06:57.700Z,12.53
2018-03-26T19:09:28.859Z,12.55
2018-03-26T19:12:00.157Z,12.59
2018-03-26T19:14:31.633Z,12.49
2018-03-26T19:17:03.061Z,12.51
2018-03-26T19:19:34.746Z,12.54
2018-03-26T19:22:06.718Z,12.46
2018-03-26T19:37:56.593Z,12.23
2018-03-26T19:40:34.531Z,12.34
2018-03-26T19:43:07.001Z,12.53
2018-03-26T19:45:38.856Z,12.75
2018-03-26T19:48:10.151Z,12.88
2018-03-26T19:50:41.347Z,12.94
2018-03-26T19:53:17.305Z,12.96
2018-03-26T19:55:48.395Z,12.87
2018-03-26T19:58:19.669Z,13.00
2018-03-26T20:00:51.001Z,12.92
2018-03-26T20:03:23.440Z,13.15
2018-03-26T20:05:55.383Z,13.24
2018-03-26T20:08:27.536Z,13.23
2018-03-26T20:10:58.768Z,13.17
2018-03-26T20:26:54.729Z,12.60
2018-03-26T20:29:27.526Z,12.57
2018-03-26T20:31:58.659Z,12.58
2018-03-26T20:34:30.455Z,11.87
2018-03-26T20:37:02.087Z,11.53
2018-03-26T20:39:34.162Z,11.26
2018-03-26T20:42:06.008Z,11.29
2018-03-26T20:44:37.146Z,11.67
2018-03-26T20:47:08.686Z,11.89
2018-03-26T20:55:53.343Z,12.29
2018-03-26T20:58:29.206Z,12.32
2018-03-26T21:01:00.866Z,12.39
2018-03-26T21:03:33.523Z,11.94
2018-03-26T21:06:05.176Z,11.75
2018-03-26T21:08:37.656Z,11.61
2018-03-26T21:11:08.599Z,11.72
2018-03-26T21:13:39.668Z,11.65
2018-03-26T21:16:11.608Z,11.74
2018-03-26T21:18:42.504Z,11.66
2018-03-26T21:21:13.302Z,11.51
2018-03-26T21:23:45.328Z,11.40
2018-03-26T21:26:18.368Z,11.41
2018-03-26T21:28:49.509Z,11.32
2018-03-26T21:31:20.646Z,11.35
2018-03-26T21:33:51.851Z,11.42
2018-03-26T21:36:24.466Z,11.39
2018-03-26T21:49:53.149Z,11.26
2018-03-26T21:52:25.685Z,11.19
2018-03-26T21:55:03.817Z,11.14
2018-03-26T21:57:36.215Z,11.17
2018-03-26T22:00:10.631Z,11.19
2018-03-26T22:02:44.690Z,11.20
2018-03-26T22:05:15.598Z,11.17
2018-03-26T22:07:46.662Z,11.19
2018-03-26T22:19:04.603Z,10.68
2018-03-26T22:21:35.523Z,10.66
2018-03-26T22:24:06.508Z,10.47
2018-03-26T22:26:37.918Z,10.45
2018-03-26T22:29:09.369Z,10.46
2018-03-26T22:31:40.700Z,10.44
2018-03-26T22:34:11.785Z,10.36
2018-03-26T22:36:42.781Z,10.30
2018-03-26T22:46:41.739Z,10.20
2018-03-26T22:49:13.010Z,10.17
2018-03-26T22:51:44.070Z,10.17
2018-03-26T22:54:15.584Z,10.17
2018-03-26T23:09:54.042Z,10.06
2018-03-26T23:12:32.825Z,10.07
2018-03-26T23:15:08.165Z,10.10
2018-03-26T23:17:39.851Z,10.11
2018-03-26T23:20:11.174Z,10.07
2018-03-26T23:22:57.143Z,10.02
2018-03-26T23:32:47.656Z,10.24
2018-03-26T23:35:19.034Z,10.09
2018-03-26T23:37:50.573Z,10.09
2018-03-26T23:40:21.770Z,9.99
2018-03-26T23:42:53.533Z,9.85
2018-03-26T23:45:26.100Z,9.91
2018-03-26T23:47:57.124Z,9.86
2018-03-26T23:50:29.522Z,9.88
2018-03-26T23:53:00.429Z,9.90
2018-03-26T23:55:31.993Z,9.87
2018-03-26T23:58:03.588Z,9.88
